createdAt,value
2023-03-18T00:01:55.257Z,1.64
2023-03-18T00:04:24.422Z,1.67
2023-03-18T00:06:52.484Z,1.65
2023-03-18T00:09:21.244Z,1.59
2023-03-18T00:11:49.352Z,1.58
2023-03-18T00:14:17.639Z,1.59
2023-03-18T00:16:47.214Z,1.45
2023-03-18T00:19:15.514Z,1.31
2023-03-18T00:21:43.690Z,1.12
2023-03-18T00:24:12.444Z,1.31
2023-03-18T00:26:40.715Z,1.32
2023-03-18T00:29:08.978Z,1.38
2023-03-18T00:31:38.435Z,1.32
2023-03-18T00:34:08.094Z,1.34
2023-03-18T00:36:37.493Z,1.27
2023-03-18T00:39:05.888Z,1.24
2023-03-18T00:41:36.479Z,1.27
2023-03-18T00:44:04.888Z,1.22
2023-03-18T00:46:34.730Z,1.19
2023-03-18T00:49:05.215Z,1.07
2023-03-18T00:51:36.475Z,1.09
2023-03-18T00:54:07.514Z,1.02
2023-03-18T00:56:37.722Z,1.03
2023-03-18T00:59:06.894Z,1.00
2023-03-18T01:01:35.879Z,1.00
2023-03-18T01:04:04.537Z,1.00
2023-03-18T01:06:37.566Z,1.01
2023-03-18T01:09:07.217Z,0.98
2023-03-18T01:11:35.703Z,1.00
2023-03-18T01:14:03.956Z,0.95
2023-03-18T01:16:32.293Z,0.95
2023-03-18T01:19:00.530Z,0.93
2023-03-18T01:21:28.763Z,0.93
2023-03-18T01:24:01.752Z,0.82
2023-03-18T01:26:31.442Z,0.86
2023-03-18T01:29:01.184Z,0.88
2023-03-18T01:31:31.273Z,0.85
2023-03-18T01:34:05.144Z,0.83
2023-03-18T01:36:43.414Z,0.81
2023-03-18T01:39:12.990Z,0.74
2023-03-18T01:41:41.457Z,0.62
2023-03-18T01:44:17.702Z,0.68
2023-03-18T01:46:48.532Z,0.66
2023-03-18T01:49:21.723Z,0.59
2023-03-18T01:51:52.803Z,0.51
2023-03-18T01:54:24.858Z,0.51
2023-03-18T01:56:54.170Z,0.51
2023-03-18T01:59:26.479Z,0.53
2023-03-18T02:01:59.237Z,0.50
2023-03-18T02:04:38.519Z,0.53
2023-03-18T02:07:08.809Z,0.43
2023-03-18T02:09:38.358Z,0.39
2023-03-18T02:12:09.614Z,0.43
2023-03-18T02:14:38.363Z,0.41
2023-03-18T02:17:11.816Z,0.29
2023-03-18T02:19:59.325Z,0.42
2023-03-18T02:22:33.313Z,0.36
2023-03-18T02:25:20.695Z,0.37
2023-03-18T02:27:55.528Z,0.35
2023-03-18T02:30:27.792Z,0.35
2023-03-18T02:32:59.410Z,0.34
2023-03-18T02:35:29.234Z,0.33
2023-03-18T02:38:00.481Z,0.33
2023-03-18T02:40:30.906Z,0.32
2023-03-18T02:43:18.385Z,0.31
2023-03-18T02:46:02.533Z,0.24
2023-03-18T02:48:36.715Z,0.30
2023-03-18T02:51:05.741Z,0.27
2023-03-18T02:53:34.369Z,0.22
2023-03-18T02:56:02.915Z,0.20
2023-03-18T02:58:33.590Z,0.23
2023-03-18T03:01:03.647Z,0.22
2023-03-18T03:03:31.926Z,0.14
2023-03-18T03:06:00.138Z,0.24
2023-03-18T03:08:29.356Z,0.19
2023-03-18T03:10:57.635Z,0.16
2023-03-18T03:13:26.224Z,0.17
2023-03-18T03:15:56.438Z,0.18
2023-03-18T03:18:24.624Z,0.16
2023-03-18T03:20:52.782Z,0.15
2023-03-18T03:23:21.851Z,0.16
2023-03-18T03:25:51.134Z,0.15
2023-03-18T03:28:21.408Z,0.13
2023-03-18T03:30:49.653Z,0.13
2023-03-18T03:33:19.266Z,0.10
2023-03-18T03:35:47.395Z,0.06
2023-03-18T03:38:16.217Z,0.08
2023-03-18T03:40:45.398Z,0.06
2023-03-18T03:43:14.629Z,0.02
2023-03-18T03:45:43.809Z,0.00
2023-03-18T03:48:12.973Z,0.02
2023-03-18T03:50:42.736Z,0.02
2023-03-18T03:53:11.566Z,0.00
2023-03-18T03:55:39.799Z,-0.06
2023-03-18T03:58:08.024Z,-0.21
2023-03-18T04:00:36.585Z,-0.35
2023-03-18T04:03:05.225Z,-0.32
2023-03-18T04:05:33.741Z,-0.28
2023-03-18T04:08:03.532Z,-0.29
2023-03-18T04:10:39.514Z,-0.28
2023-03-18T04:13:10.697Z,-0.24
2023-03-18T04:15:41.233Z,-0.26
2023-03-18T04:18:14.837Z,-0.24
2023-03-18T04:20:42.992Z,-0.23
2023-03-18T04:23:21.329Z,-0.30
2023-03-18T04:25:49.446Z,-0.28
2023-03-18T04:28:17.876Z,-0.32
2023-03-18T04:30:46.049Z,-0.33
2023-03-18T04:33:18.001Z,-0.39
2023-03-18T04:35:46.761Z,-0.42
2023-03-18T04:38:16.541Z,-0.44
2023-03-18T04:40:46.391Z,-0.43
2023-03-18T04:43:14.640Z,-0.35
2023-03-18T04:45:43.747Z,-0.39
2023-03-18T04:48:12.189Z,-0.33
2023-03-18T04:50:43.597Z,-0.55
2023-03-18T04:53:16.826Z,-0.50
2023-03-18T04:55:47.523Z,-0.47
2023-03-18T04:58:17.274Z,-0.49
2023-03-18T05:00:57.215Z,-0.53
2023-03-18T05:03:32.020Z,-0.41
2023-03-18T05:06:00.307Z,-0.48
2023-03-18T05:08:37.805Z,-0.51
2023-03-18T05:11:07.390Z,-0.63
2023-03-18T05:13:37.638Z,-0.58
2023-03-18T05:16:08.959Z,-0.57
2023-03-18T05:18:38.081Z,-0.54
2023-03-18T05:21:07.793Z,-0.49
2023-03-18T05:23:36.766Z,-0.50
2023-03-18T05:26:07.206Z,-0.52
2023-03-18T05:28:35.833Z,-0.47
2023-03-18T05:31:14.681Z,-0.36
2023-03-18T05:33:45.108Z,-0.34
2023-03-18T05:36:14.963Z,-0.23
2023-03-18T05:38:54.498Z,-0.17
2023-03-18T05:41:24.936Z,-0.07
2023-03-18T05:43:53.790Z,0.05
2023-03-18T05:46:22.027Z,0.25
2023-03-18T05:49:08.902Z,0.38
2023-03-18T05:51:47.429Z,0.55
2023-03-18T05:54:25.536Z,0.51
2023-03-18T05:56:55.521Z,0.56
2023-03-18T05:59:25.327Z,0.73
2023-03-18T06:01:58.176Z,0.92
2023-03-18T06:04:27.870Z,1.10
2023-03-18T06:06:57.111Z,1.34
2023-03-18T06:09:27.376Z,1.43
2023-03-18T06:11:58.660Z,1.65
2023-03-18T06:14:29.470Z,1.84
2023-03-18T06:17:01.202Z,2.03
2023-03-18T06:19:30.816Z,2.20
2023-03-18T06:21:59.481Z,2.44
2023-03-18T06:24:27.656Z,2.49
2023-03-18T06:26:58.909Z,2.61
2023-03-18T06:29:27.244Z,2.74
2023-03-18T06:31:59.287Z,2.80
2023-03-18T06:34:28.483Z,2.74
2023-03-18T06:36:57.724Z,2.97
2023-03-18T06:39:28.608Z,3.24
2023-03-18T06:41:58.449Z,3.49
2023-03-18T06:44:50.792Z,3.73
2023-03-18T06:47:25.146Z,3.84
2023-03-18T06:49:56.831Z,4.04
2023-03-18T06:52:32.041Z,4.44
2023-03-18T06:55:07.217Z,4.77
2023-03-18T06:57:40.676Z,5.08
2023-03-18T07:00:11.228Z,6.22
2023-03-18T07:02:39.884Z,7.98
2023-03-18T07:05:12.866Z,9.61
2023-03-18T07:07:42.624Z,10.37
2023-03-18T07:10:15.495Z,10.33
2023-03-18T07:12:45.137Z,10.18
2023-03-18T07:15:13.676Z,10.25
2023-03-18T07:17:41.908Z,10.97
2023-03-18T07:20:11.636Z,11.80
2023-03-18T07:22:39.798Z,11.51
2023-03-18T07:25:08.874Z,11.21
2023-03-18T07:27:37.848Z,11.25
2023-03-18T07:30:09.704Z,11.04
2023-03-18T07:32:38.592Z,11.30
2023-03-18T07:35:08.134Z,11.87
2023-03-18T07:37:36.314Z,12.72
2023-03-18T07:40:05.738Z,14.33
2023-03-18T07:42:34.564Z,14.06
2023-03-18T07:45:02.680Z,13.52
2023-03-18T07:47:32.167Z,14.12
2023-03-18T07:50:00.249Z,14.64
2023-03-18T07:52:29.458Z,14.66
2023-03-18T07:54:57.828Z,15.18
2023-03-18T07:57:26.136Z,16.29
2023-03-18T07:59:54.677Z,16.51
2023-03-18T08:02:23.668Z,16.55
2023-03-18T08:04:53.441Z,16.09
2023-03-18T08:07:23.060Z,16.56
2023-03-18T08:09:51.440Z,16.71
2023-03-18T08:12:19.887Z,16.73
2023-03-18T08:14:48.381Z,17.59
2023-03-18T08:17:17.879Z,17.13
2023-03-18T08:19:47.165Z,16.09
2023-03-18T08:22:17.054Z,16.30
2023-03-18T08:24:45.852Z,16.51
2023-03-18T08:27:14.053Z,16.87
2023-03-18T08:29:42.217Z,17.06
2023-03-18T08:32:11.320Z,17.30
2023-03-18T08:34:39.553Z,17.55
2023-03-18T08:37:08.428Z,18.35
2023-03-18T08:39:37.958Z,17.67
2023-03-18T08:42:06.925Z,17.97
2023-03-18T08:44:35.012Z,17.80
2023-03-18T08:47:03.185Z,17.56
2023-03-18T08:49:31.335Z,18.02
2023-03-18T08:51:59.916Z,18.06
2023-03-18T08:54:28.046Z,17.71
2023-03-18T08:56:58.058Z,17.24
2023-03-18T08:59:26.579Z,17.88
2023-03-18T09:01:54.693Z,18.91
2023-03-18T09:04:22.864Z,19.05
2023-03-18T09:06:51.074Z,19.52
2023-03-18T09:09:19.247Z,21.03
2023-03-18T09:11:47.916Z,21.12
2023-03-18T09:14:17.502Z,21.72
2023-03-18T09:16:46.179Z,21.36
2023-03-18T09:19:14.415Z,21.87
2023-03-18T09:21:43.241Z,21.79
2023-03-18T09:24:11.669Z,21.67
2023-03-18T09:26:40.075Z,22.38
2023-03-18T09:29:08.246Z,23.93
2023-03-18T09:31:38.768Z,24.65
2023-03-18T09:34:07.056Z,21.40
2023-03-18T09:36:35.242Z,22.53
2023-03-18T09:39:03.949Z,20.84
2023-03-18T09:41:48.367Z,21.41
2023-03-18T09:44:22.861Z,21.38
2023-03-18T09:47:08.269Z,21.32
2023-03-18T09:49:48.303Z,21.72
2023-03-18T09:52:22.885Z,22.74
2023-03-18T09:54:58.896Z,21.84
2023-03-18T09:57:31.263Z,21.94
2023-03-18T10:00:05.271Z,21.54
2023-03-18T10:02:43.617Z,22.79
2023-03-18T10:05:16.830Z,22.34
2023-03-18T10:07:48.496Z,23.38
2023-03-18T10:10:25.115Z,24.21
2023-03-18T10:13:02.360Z,23.56
2023-03-18T10:15:37.146Z,25.01
2023-03-18T10:18:13.836Z,25.50
2023-03-18T10:20:53.850Z,26.14
2023-03-18T10:23:33.146Z,25.18
2023-03-18T10:26:06.903Z,24.13
2023-03-18T10:28:49.252Z,24.02
2023-03-18T10:31:32.795Z,23.63
2023-03-18T10:34:06.775Z,23.23
2023-03-18T10:36:44.401Z,22.81
2023-03-18T10:39:16.550Z,22.92
2023-03-18T10:41:50.075Z,22.75
2023-03-18T10:44:23.772Z,21.90
2023-03-18T10:47:00.049Z,22.01
2023-03-18T10:49:32.983Z,22.78
2023-03-18T10:52:07.831Z,24.41
2023-03-18T10:54:40.863Z,23.66
2023-03-18T10:57:14.273Z,24.08
2023-03-18T10:59:44.754Z,24.98
2023-03-18T11:02:19.724Z,24.92
2023-03-18T11:04:55.577Z,25.97
2023-03-18T11:07:26.764Z,23.47
2023-03-18T11:09:55.894Z,22.39
2023-03-18T11:12:27.185Z,23.07
2023-03-18T11:14:56.506Z,25.63
2023-03-18T11:17:29.327Z,26.94
2023-03-18T11:20:20.976Z,25.82
2023-03-18T11:22:52.276Z,24.66
2023-03-18T11:25:24.180Z,24.29
2023-03-18T11:27:54.186Z,24.51
2023-03-18T11:30:40.722Z,26.45
2023-03-18T11:33:16.210Z,25.73
2023-03-18T11:35:48.566Z,25.65
2023-03-18T11:38:19.544Z,25.31
2023-03-18T11:40:48.267Z,24.91
2023-03-18T11:43:20.233Z,24.64
2023-03-18T11:45:56.260Z,27.47
2023-03-18T11:48:35.773Z,27.60
2023-03-18T11:51:27.191Z,24.28
2023-03-18T11:54:09.602Z,23.84
2023-03-18T11:56:43.741Z,25.84
2023-03-18T11:59:38.798Z,26.98
2023-03-18T12:02:32.266Z,26.16
2023-03-18T12:05:29.574Z,25.95
2023-03-18T12:08:12.045Z,24.83
2023-03-18T12:10:48.300Z,24.48
2023-03-18T12:13:36.279Z,24.92
2023-03-18T12:16:13.382Z,25.87
2023-03-18T12:19:10.165Z,25.12
2023-03-18T12:21:52.851Z,26.21
2023-03-18T12:24:40.932Z,28.60
2023-03-18T12:27:20.166Z,28.34
2023-03-18T12:30:04.695Z,27.20
2023-03-18T12:32:38.061Z,26.64
2023-03-18T12:35:25.104Z,27.12
2023-03-18T12:38:09.866Z,26.84
2023-03-18T12:40:49.779Z,27.97
2023-03-18T12:43:37.947Z,24.95
2023-03-18T12:46:17.480Z,25.74
2023-03-18T12:48:53.322Z,25.74
2023-03-18T12:51:26.728Z,26.28
2023-03-18T12:53:58.456Z,26.74
2023-03-18T12:56:30.552Z,25.43
2023-03-18T12:59:06.532Z,26.28
2023-03-18T13:01:41.320Z,24.63
2023-03-18T13:04:14.705Z,24.31
2023-03-18T13:06:47.060Z,24.24
2023-03-18T13:09:28.731Z,25.18
2023-03-18T13:12:05.416Z,24.90
2023-03-18T13:14:50.351Z,24.38
2023-03-18T13:17:25.715Z,24.89
2023-03-18T13:19:53.893Z,23.64
2023-03-18T13:22:53.519Z,25.40
2023-03-18T13:25:33.627Z,24.96
2023-03-18T13:28:26.968Z,26.08
2023-03-18T13:31:07.451Z,26.32
2023-03-18T13:33:53.249Z,25.75
2023-03-18T13:36:35.997Z,25.10
2023-03-18T13:39:18.364Z,25.66
2023-03-18T13:42:14.020Z,24.77
2023-03-18T13:44:47.297Z,26.49
2023-03-18T13:47:19.509Z,26.12
2023-03-18T13:49:48.000Z,25.19
2023-03-18T13:52:27.999Z,23.53
2023-03-18T13:55:02.507Z,22.50
2023-03-18T13:57:49.782Z,21.84
2023-03-18T14:00:42.042Z,20.53
2023-03-18T14:03:30.019Z,22.28
2023-03-18T14:06:40.690Z,20.69
2023-03-18T14:09:24.927Z,19.92
2023-03-18T14:11:54.102Z,18.83
2023-03-18T14:15:02.685Z,19.12
2023-03-18T14:17:47.352Z,19.31
2023-03-18T14:20:39.881Z,18.21
2023-03-18T14:23:33.332Z,17.58
2023-03-18T14:26:04.556Z,17.73
2023-03-18T14:28:45.474Z,17.88
2023-03-18T14:31:58.018Z,17.94
2023-03-18T14:34:34.058Z,17.55
2023-03-18T14:37:27.717Z,17.54
2023-03-18T14:40:03.869Z,17.31
2023-03-18T14:42:42.172Z,17.11
2023-03-18T14:45:19.508Z,16.98
2023-03-18T14:47:51.068Z,16.82
2023-03-18T14:50:30.604Z,16.77
2023-03-18T14:53:04.171Z,16.62
2023-03-18T14:55:35.547Z,16.46
2023-03-18T14:58:04.561Z,16.25
2023-03-18T15:00:36.482Z,16.21
2023-03-18T15:03:08.376Z,16.06
2023-03-18T15:05:41.220Z,16.07
2023-03-18T15:08:15.824Z,15.91
2023-03-18T15:10:46.512Z,15.55
2023-03-18T15:13:17.999Z,15.44
2023-03-18T15:15:47.125Z,15.29
2023-03-18T15:18:20.840Z,15.40
2023-03-18T15:20:53.698Z,15.48
2023-03-18T15:23:30.148Z,15.28
2023-03-18T15:25:58.497Z,15.14
2023-03-18T15:28:29.881Z,15.05
2023-03-18T15:31:00.588Z,15.00
2023-03-18T15:33:31.849Z,15.18
2023-03-18T15:36:07.043Z,15.28
2023-03-18T15:38:35.410Z,15.44
2023-03-18T15:41:06.702Z,15.67
2023-03-18T15:43:40.789Z,15.43
2023-03-18T15:46:17.258Z,15.62
2023-03-18T15:48:54.226Z,15.50
2023-03-18T15:51:30.160Z,15.53
2023-03-18T15:54:01.608Z,15.44
2023-03-18T15:56:31.557Z,15.49
2023-03-18T15:59:06.913Z,15.52
2023-03-18T16:01:36.345Z,15.45
2023-03-18T16:04:07.725Z,15.37
2023-03-18T16:06:38.750Z,15.13
2023-03-18T16:09:17.286Z,15.07
2023-03-18T16:11:48.570Z,14.84
2023-03-18T16:14:18.892Z,14.73
2023-03-18T16:16:47.160Z,14.56
2023-03-18T16:19:25.142Z,14.47
2023-03-18T16:21:56.440Z,14.38
2023-03-18T16:24:25.239Z,14.31
2023-03-18T16:26:54.380Z,14.08
2023-03-18T16:29:28.944Z,14.07
2023-03-18T16:31:57.213Z,14.00
2023-03-18T16:34:26.022Z,13.90
2023-03-18T16:36:56.217Z,13.75
2023-03-18T16:39:27.601Z,13.63
2023-03-18T16:41:56.479Z,13.51
2023-03-18T16:44:25.012Z,13.33
2023-03-18T16:46:55.708Z,13.26
2023-03-18T16:49:26.006Z,13.15
2023-03-18T16:51:55.553Z,13.00
2023-03-18T16:54:25.830Z,12.95
2023-03-18T16:56:57.536Z,12.81
2023-03-18T16:59:30.817Z,12.71
2023-03-18T17:01:59.351Z,12.56
2023-03-18T17:04:31.637Z,12.35
2023-03-18T17:07:03.696Z,12.21
2023-03-18T17:09:33.987Z,12.02
2023-03-18T17:12:06.021Z,11.83
2023-03-18T17:14:37.668Z,11.63
2023-03-18T17:17:12.903Z,11.47
2023-03-18T17:19:42.001Z,11.24
2023-03-18T17:22:23.131Z,11.07
2023-03-18T17:24:52.413Z,10.87
2023-03-18T17:27:23.874Z,10.77
2023-03-18T17:29:52.814Z,10.58
2023-03-18T17:32:22.278Z,10.49
2023-03-18T17:34:52.939Z,10.29
2023-03-18T17:37:24.743Z,10.12
2023-03-18T17:39:53.718Z,10.13
2023-03-18T17:42:29.809Z,9.93
2023-03-18T17:45:05.731Z,9.74
2023-03-18T17:47:34.369Z,9.62
2023-03-18T17:50:03.841Z,9.46
2023-03-18T17:52:36.078Z,9.35
2023-03-18T17:55:15.273Z,9.21
2023-03-18T17:57:45.470Z,9.09
2023-03-18T18:00:21.890Z,9.00
2023-03-18T18:02:52.655Z,8.83
2023-03-18T18:05:24.341Z,8.80
2023-03-18T18:07:54.868Z,8.65
2023-03-18T18:10:24.957Z,8.48
2023-03-18T18:12:55.871Z,8.41
2023-03-18T18:15:28.368Z,8.34
2023-03-18T18:17:57.131Z,8.19
2023-03-18T18:20:26.334Z,8.09
2023-03-18T18:22:58.205Z,8.00
2023-03-18T18:25:31.368Z,7.92
2023-03-18T18:28:01.872Z,7.86
2023-03-18T18:30:33.148Z,7.79
2023-03-18T18:33:03.393Z,7.71
2023-03-18T18:35:33.358Z,7.60
2023-03-18T18:38:04.737Z,7.49
2023-03-18T18:40:35.372Z,7.41
2023-03-18T18:43:05.888Z,7.37
2023-03-18T18:45:35.828Z,7.27
2023-03-18T18:48:11.909Z,7.32
2023-03-18T18:50:41.850Z,7.18
2023-03-18T18:53:19.831Z,7.12
2023-03-18T18:55:49.992Z,7.04
2023-03-18T18:58:20.970Z,6.87
2023-03-18T19:00:52.316Z,6.80
2023-03-18T19:03:23.684Z,6.73
2023-03-18T19:05:55.197Z,6.62
2023-03-18T19:08:30.675Z,6.61
2023-03-18T19:11:01.870Z,6.54
2023-03-18T19:13:33.987Z,6.47
2023-03-18T19:16:07.407Z,6.44
2023-03-18T19:18:41.067Z,6.37
2023-03-18T19:21:11.650Z,6.28
2023-03-18T19:23:42.176Z,6.25
2023-03-18T19:26:15.762Z,6.21
2023-03-18T19:28:59.596Z,6.11
2023-03-18T19:31:35.554Z,6.01
2023-03-18T19:34:17.130Z,5.91
2023-03-18T19:36:49.833Z,5.90
2023-03-18T19:39:22.872Z,5.80
2023-03-18T19:41:53.755Z,5.77
2023-03-18T19:44:25.703Z,5.72
2023-03-18T19:46:57.633Z,5.65
2023-03-18T19:49:33.446Z,5.61
2023-03-18T19:52:04.874Z,5.57
2023-03-18T19:54:37.616Z,5.54
2023-03-18T19:57:14.640Z,5.48
2023-03-18T19:59:45.784Z,5.46
2023-03-18T20:02:25.213Z,5.42
2023-03-18T20:04:59.444Z,5.39
2023-03-18T20:07:32.172Z,5.35
2023-03-18T20:10:03.757Z,5.37
2023-03-18T20:12:38.067Z,5.29
2023-03-18T20:15:09.069Z,5.24
2023-03-18T20:17:42.884Z,5.22
2023-03-18T20:20:18.589Z,5.21
2023-03-18T20:22:49.630Z,5.22
2023-03-18T20:25:25.039Z,5.24
2023-03-18T20:27:57.245Z,5.17
2023-03-18T20:30:30.763Z,5.16
2023-03-18T20:33:04.728Z,5.17
2023-03-18T20:35:37.128Z,5.11
2023-03-18T20:38:14.978Z,5.08
2023-03-18T20:40:49.611Z,5.05
2023-03-18T20:43:21.665Z,5.04
2023-03-18T20:45:52.579Z,5.00
2023-03-18T20:48:23.002Z,5.00
2023-03-18T20:51:03.161Z,4.98
2023-03-18T20:53:33.297Z,4.92
2023-03-18T20:56:05.835Z,4.87
2023-03-18T20:58:34.928Z,4.77
2023-03-18T21:01:05.027Z,4.82
2023-03-18T21:03:37.626Z,4.78
2023-03-18T21:06:06.936Z,4.71
2023-03-18T21:08:36.595Z,4.67
2023-03-18T21:11:18.541Z,4.64
2023-03-18T21:13:49.685Z,4.61
2023-03-18T21:16:18.885Z,4.60
2023-03-18T21:18:49.957Z,4.57
2023-03-18T21:21:24.847Z,4.53
2023-03-18T21:23:55.174Z,4.52
2023-03-18T21:26:25.909Z,4.50
2023-03-18T21:28:55.348Z,4.52
2023-03-18T21:31:31.470Z,4.41
2023-03-18T21:34:01.993Z,4.32
2023-03-18T21:36:32.503Z,4.23
2023-03-18T21:39:01.051Z,4.22
2023-03-18T21:41:34.408Z,4.17
2023-03-18T21:44:04.482Z,4.15
2023-03-18T21:46:33.321Z,4.13
2023-03-18T21:49:02.262Z,4.09
2023-03-18T21:51:39.258Z,4.03
2023-03-18T21:54:18.395Z,4.03
2023-03-18T21:56:51.205Z,4.02
2023-03-18T21:59:20.192Z,3.99
2023-03-18T22:01:48.891Z,3.91
2023-03-18T22:04:17.314Z,3.88
2023-03-18T22:06:45.569Z,3.79
2023-03-18T22:09:13.735Z,3.71
2023-03-18T22:11:41.938Z,3.65
2023-03-18T22:14:15.115Z,3.56
2023-03-18T22:16:43.269Z,3.58
2023-03-18T22:19:11.375Z,3.57
2023-03-18T22:21:39.518Z,3.55
2023-03-18T22:24:14.171Z,3.53
2023-03-18T22:26:42.299Z,3.46
2023-03-18T22:29:10.524Z,3.43
2023-03-18T22:31:41.780Z,3.38
2023-03-18T22:34:22.711Z,3.32
2023-03-18T22:36:50.924Z,3.30
2023-03-18T22:39:19.008Z,3.27
2023-03-18T22:41:49.898Z,3.27
2023-03-18T22:44:23.603Z,3.27
2023-03-18T22:46:53.294Z,3.26
2023-03-18T22:49:21.447Z,3.20
2023-03-18T22:51:49.560Z,3.16
2023-03-18T22:54:19.566Z,3.15
2023-03-18T22:56:48.058Z,3.14
2023-03-18T22:59:16.250Z,3.11
2023-03-18T23:01:44.825Z,3.07
2023-03-18T23:04:14.491Z,3.04
2023-03-18T23:06:43.101Z,2.98
2023-03-18T23:09:11.258Z,2.98
2023-03-18T23:11:39.414Z,2.98
2023-03-18T23:14:08.725Z,2.98
2023-03-18T23:16:36.842Z,2.95
2023-03-18T23:19:05.003Z,2.95
2023-03-18T23:21:35.433Z,2.90
2023-03-18T23:24:03.582Z,2.86
2023-03-18T23:26:31.635Z,2.86
2023-03-18T23:28:59.725Z,2.81
2023-03-18T23:31:27.864Z,2.84
2023-03-18T23:33:55.936Z,2.74
2023-03-18T23:36:24.070Z,2.68
2023-03-18T23:38:53.605Z,2.67
2023-03-18T23:41:21.684Z,2.72
2023-03-18T23:43:49.832Z,2.68
2023-03-18T23:46:17.980Z,2.65
2023-03-18T23:48:46.093Z,2.59
2023-03-18T23:51:14.144Z,2.58
2023-03-18T23:53:42.237Z,2.52
2023-03-18T23:56:11.922Z,2.50
2023-03-18T23:58:40.085Z,2.44
